createdAt,value
2018-11-20T00:00:01.440Z,3.00
2018-11-20T00:02:48.028Z,2.90
2018-11-20T00:05:44.596Z,2.90
2018-11-20T00:08:34.960Z,2.90
2018-11-20T00:11:28.492Z,2.90
2018-11-20T00:14:15.022Z,2.90
2018-11-20T00:17:05.628Z,2.90
2018-11-20T00:19:49.024Z,2.90
2018-11-20T00:22:42.884Z,2.90
2018-11-20T00:25:29.171Z,2.90
2018-11-20T00:28:07.431Z,2.90
2018-11-20T00:30:54.512Z,2.90
2018-11-20T00:33:45.083Z,2.90
2018-11-20T00:36:35.658Z,2.90
2018-11-20T00:39:28.401Z,2.90
2018-11-20T00:42:31.047Z,2.90
2018-11-20T00:45:24.229Z,3.00
2018-11-20T00:48:10.581Z,3.00
2018-11-20T00:50:58.240Z,3.00
2018-11-20T00:53:57.517Z,3.00
2018-11-20T00:57:04.487Z,3.00
2018-11-20T00:59:52.857Z,3.00
2018-11-20T01:02:49.432Z,3.00
2018-11-20T01:05:35.875Z,3.00
2018-11-20T01:08:23.705Z,3.00
2018-11-20T01:11:23.459Z,3.00
2018-11-20T01:14:10.105Z,3.00
2018-11-20T01:16:56.511Z,3.00
2018-11-20T01:19:46.748Z,3.00
2018-11-20T01:22:33.178Z,3.00
2018-11-20T01:25:12.228Z,3.00
2018-11-20T01:27:58.592Z,3.00
2018-11-20T01:30:45.112Z,3.00
2018-11-20T01:33:31.487Z,3.00
2018-11-20T01:36:17.895Z,3.00
2018-11-20T01:39:08.525Z,3.00
2018-11-20T01:41:46.919Z,3.00
2018-11-20T01:44:40.711Z,3.00
2018-11-20T01:47:24.210Z,3.00
2018-11-20T01:50:11.889Z,2.90
2018-11-20T01:52:56.719Z,3.00
2018-11-20T01:55:47.300Z,3.00
2018-11-20T01:58:40.904Z,3.00
2018-11-20T02:01:27.052Z,3.00
2018-11-20T02:04:13.372Z,3.00
2018-11-20T02:07:00.988Z,3.00
2018-11-20T02:09:41.954Z,3.00
2018-11-20T02:12:28.371Z,3.00
2018-11-20T02:15:07.401Z,3.00
2018-11-20T02:17:51.071Z,3.00
2018-11-20T02:20:37.558Z,3.00
2018-11-20T02:23:24.132Z,3.00
2018-11-20T02:26:11.812Z,3.00
2018-11-20T02:29:11.250Z,3.00
2018-11-20T02:32:01.493Z,3.00
2018-11-20T02:35:04.383Z,3.00
2018-11-20T02:38:00.736Z,3.00
2018-11-20T02:40:48.404Z,3.00
2018-11-20T02:43:27.398Z,3.00
2018-11-20T02:46:27.349Z,3.00
2018-11-20T02:49:23.868Z,3.00
2018-11-20T02:52:10.288Z,3.00
2018-11-20T02:54:57.996Z,3.00
2018-11-20T02:57:51.728Z,3.00
2018-11-20T03:00:38.440Z,3.00
2018-11-20T03:03:24.730Z,3.00
2018-11-20T03:06:11.017Z,3.00
2018-11-20T03:08:52.219Z,3.00
2018-11-20T03:11:42.561Z,3.00
2018-11-20T03:14:26.631Z,3.00
2018-11-20T03:17:22.502Z,3.00
2018-11-20T03:20:08.563Z,3.00
2018-11-20T03:23:08.461Z,2.90
2018-11-20T03:26:21.211Z,2.90
2018-11-20T03:30:06.215Z,3.00
2018-11-20T03:32:45.715Z,2.90
2018-11-20T03:35:36.071Z,2.90
2018-11-20T03:38:35.952Z,2.90
2018-11-20T03:41:26.531Z,2.90
2018-11-20T03:44:04.473Z,2.90
2018-11-20T03:47:04.313Z,2.90
2018-11-20T03:49:50.819Z,2.90
2018-11-20T03:52:47.542Z,2.90
2018-11-20T03:55:38.104Z,2.90
2018-11-20T03:58:20.903Z,2.90
2018-11-20T04:01:08.590Z,2.90
2018-11-20T04:03:48.052Z,2.90
2018-11-20T04:06:31.543Z,2.90
2018-11-20T04:09:22.081Z,2.90
2018-11-20T04:12:09.785Z,2.90
2018-11-20T04:15:15.446Z,2.90
2018-11-20T04:18:12.017Z,2.90
2018-11-20T04:21:11.556Z,2.90
2018-11-20T04:23:50.710Z,2.90
2018-11-20T04:26:35.504Z,3.00
2018-11-20T04:29:14.059Z,3.00
2018-11-20T04:32:01.567Z,2.90
2018-11-20T04:34:49.271Z,3.00
2018-11-20T04:37:37.447Z,3.00
2018-11-20T04:40:17.201Z,3.00
2018-11-20T04:43:08.755Z,2.90
2018-11-20T04:45:56.423Z,2.90
2018-11-20T04:48:53.338Z,2.90
2018-11-20T04:51:43.929Z,2.90
2018-11-20T04:54:49.595Z,2.90
2018-11-20T04:57:36.191Z,2.90
2018-11-20T05:00:24.892Z,2.90
2018-11-20T05:03:27.749Z,2.90
2018-11-20T05:06:14.283Z,2.90
2018-11-20T05:09:00.437Z,2.90
2018-11-20T05:11:37.182Z,2.90
2018-11-20T05:14:15.895Z,2.90
2018-11-20T05:17:02.389Z,2.90
2018-11-20T05:19:55.865Z,2.80
2018-11-20T05:22:52.645Z,2.80
2018-11-20T05:25:38.704Z,2.80
2018-11-20T05:28:18.439Z,2.80
2018-11-20T05:31:12.160Z,2.80
2018-11-20T05:33:57.830Z,2.80
2018-11-20T05:36:39.029Z,2.80
2018-11-20T05:39:28.074Z,2.80
2018-11-20T05:42:07.070Z,2.80
2018-11-20T05:44:54.783Z,2.70
2018-11-20T05:47:48.099Z,2.70
2018-11-20T05:50:47.977Z,2.70
2018-11-20T05:53:28.315Z,2.70
2018-11-20T05:56:10.779Z,2.70
2018-11-20T05:59:04.354Z,2.70
2018-11-20T06:02:00.923Z,2.70
2018-11-20T06:04:47.272Z,2.70
2018-11-20T06:07:26.074Z,2.60
2018-11-20T06:10:13.737Z,2.60
2018-11-20T06:13:10.448Z,2.60
2018-11-20T06:16:13.337Z,2.40
2018-11-20T06:19:19.103Z,2.60
2018-11-20T06:22:21.681Z,2.60
2018-11-20T06:25:05.033Z,2.60
2018-11-20T06:27:58.402Z,2.50
2018-11-20T06:30:44.529Z,2.50
2018-11-20T06:33:37.275Z,2.50
2018-11-20T06:36:24.569Z,2.50
2018-11-20T06:39:17.930Z,2.50
2018-11-20T06:42:19.578Z,2.50
2018-11-20T06:45:22.365Z,2.40
2018-11-20T06:48:10.316Z,2.40
2018-11-20T06:50:56.356Z,2.40
2018-11-20T06:53:36.198Z,2.50
2018-11-20T06:56:26.093Z,2.50
2018-11-20T06:59:16.781Z,2.50
2018-11-20T07:02:10.561Z,2.50
2018-11-20T07:04:56.856Z,2.50
2018-11-20T07:07:43.223Z,2.40
2018-11-20T07:10:33.378Z,2.50
2018-11-20T07:13:44.579Z,2.50
2018-11-20T07:16:48.116Z,2.40
2018-11-20T07:19:52.337Z,2.40
2018-11-20T07:22:38.994Z,2.40
2018-11-20T07:25:25.659Z,2.40
2018-11-20T07:28:16.406Z,2.40
2018-11-20T07:31:02.667Z,2.40
2018-11-20T07:34:08.349Z,2.40
2018-11-20T07:37:02.018Z,2.40
2018-11-20T07:39:55.716Z,2.40
2018-11-20T07:42:44.002Z,2.40
2018-11-20T07:45:31.661Z,2.40
2018-11-20T07:48:28.421Z,2.40
2018-11-20T07:51:16.092Z,2.40
2018-11-20T07:54:02.243Z,2.40
2018-11-20T07:56:58.863Z,2.40
2018-11-20T07:59:49.149Z,2.40
2018-11-20T08:02:42.849Z,2.40
2018-11-20T08:05:30.498Z,2.40
2018-11-20T08:08:30.009Z,2.40
2018-11-20T08:11:32.565Z,2.40
2018-11-20T08:14:09.538Z,2.40
2018-11-20T08:16:52.317Z,2.40
2018-11-20T08:19:40.010Z,2.40
2018-11-20T08:22:30.563Z,2.50
2018-11-20T08:25:18.270Z,2.50
2018-11-20T08:28:04.649Z,2.50
2018-11-20T08:30:50.988Z,2.50
2018-11-20T08:33:37.390Z,2.50
2018-11-20T08:36:17.263Z,2.50
2018-11-20T08:39:03.418Z,2.50
2018-11-20T08:41:49.743Z,2.50
2018-11-20T08:44:35.958Z,2.40
2018-11-20T08:47:28.491Z,2.40
2018-11-20T08:50:34.433Z,2.50
2018-11-20T08:53:34.212Z,2.50
2018-11-20T08:56:14.995Z,2.50
2018-11-20T08:59:02.778Z,2.50
2018-11-20T09:02:02.805Z,2.50
2018-11-20T09:04:43.754Z,2.50
2018-11-20T09:07:24.622Z,2.50
2018-11-20T09:10:03.626Z,2.50
2018-11-20T09:12:49.912Z,2.50
2018-11-20T09:15:44.123Z,2.40
2018-11-20T09:18:34.653Z,2.40
2018-11-20T09:21:17.265Z,2.40
2018-11-20T09:24:13.572Z,2.40
2018-11-20T09:26:52.297Z,2.40
2018-11-20T09:29:39.950Z,2.40
2018-11-20T09:32:27.634Z,2.40
2018-11-20T09:35:15.425Z,2.40
2018-11-20T09:37:58.493Z,2.40
2018-11-20T09:41:05.778Z,2.40
2018-11-20T09:44:10.409Z,2.30
2018-11-20T09:46:50.719Z,2.40
2018-11-20T09:49:40.950Z,2.40
2018-11-20T09:52:27.453Z,2.40
2018-11-20T09:55:30.324Z,2.50
2018-11-20T09:58:16.747Z,2.50
2018-11-20T10:01:04.448Z,2.40
2018-11-20T10:03:50.809Z,2.40
2018-11-20T10:06:37.069Z,2.50
2018-11-20T10:09:30.898Z,2.50
2018-11-20T10:12:17.240Z,2.50
2018-11-20T10:15:03.754Z,2.50
2018-11-20T10:17:52.091Z,2.50
2018-11-20T10:20:39.781Z,2.50
2018-11-20T10:23:36.169Z,2.50
2018-11-20T10:26:22.882Z,2.50
2018-11-20T10:29:09.096Z,2.60
2018-11-20T10:32:10.679Z,2.60
2018-11-20T10:34:58.278Z,2.60
2018-11-20T10:37:33.006Z,2.60
2018-11-20T10:40:20.730Z,2.60
2018-11-20T10:43:07.104Z,2.60
2018-11-20T10:45:53.312Z,2.60
2018-11-20T10:48:38.363Z,2.60
2018-11-20T10:51:15.822Z,2.60
2018-11-20T10:54:13.777Z,2.60
2018-11-20T10:56:59.905Z,2.60
2018-11-20T10:59:53.612Z,2.60
2018-11-20T11:02:42.162Z,2.70
2018-11-20T11:05:29.533Z,2.70
2018-11-20T11:08:16.041Z,2.70
2018-11-20T11:11:09.508Z,2.60
2018-11-20T11:14:05.119Z,2.70
2018-11-20T11:16:51.295Z,2.70
2018-11-20T11:19:37.633Z,2.60
2018-11-20T11:22:25.731Z,2.70
2018-11-20T11:25:08.221Z,2.60
2018-11-20T11:27:56.021Z,2.70
2018-11-20T11:30:46.511Z,2.70
2018-11-20T11:33:49.436Z,2.70
2018-11-20T11:36:55.027Z,2.80
2018-11-20T11:39:41.127Z,2.80
2018-11-20T11:42:44.088Z,2.90
2018-11-20T11:45:34.396Z,2.90
2018-11-20T11:48:22.098Z,2.80
2018-11-20T11:51:15.838Z,2.90
2018-11-20T11:54:21.630Z,2.90
2018-11-20T11:57:09.338Z,2.90
2018-11-20T12:00:09.039Z,2.90
2018-11-20T12:06:03.218Z,2.90
2018-11-20T12:08:52.560Z,2.90
2018-11-20T12:11:42.153Z,2.90
2018-11-20T12:14:39.038Z,3.00
2018-11-20T12:17:32.914Z,2.90
2018-11-20T12:20:26.578Z,3.00
2018-11-20T12:23:26.915Z,2.90
2018-11-20T12:26:22.501Z,2.90
2018-11-20T12:29:28.524Z,2.90
2018-11-20T12:32:09.692Z,2.90
2018-11-20T12:35:13.655Z,2.90
2018-11-20T12:37:59.348Z,2.90
2018-11-20T12:40:51.619Z,2.90
2018-11-20T12:43:39.341Z,2.90
2018-11-20T12:46:25.643Z,2.90
2018-11-20T12:49:11.963Z,3.00
2018-11-20T12:51:59.635Z,3.00
2018-11-20T12:54:47.307Z,3.00
2018-11-20T12:57:37.704Z,3.00
2018-11-20T13:00:29.363Z,3.00
2018-11-20T13:03:23.177Z,3.00
2018-11-20T13:06:09.456Z,3.00
2018-11-20T13:08:56.012Z,3.00
2018-11-20T13:11:49.322Z,3.00
2018-11-20T13:14:38.540Z,3.00
2018-11-20T13:17:23.339Z,3.00
2018-11-20T13:20:10.606Z,3.00
2018-11-20T13:22:57.881Z,2.90
2018-11-20T13:25:51.402Z,2.90
2018-11-20T13:28:32.537Z,2.90
2018-11-20T13:31:16.484Z,3.00
2018-11-20T13:34:20.852Z,2.90
2018-11-20T13:37:02.076Z,3.00
2018-11-20T13:39:49.759Z,3.00
2018-11-20T13:42:49.227Z,3.00
2018-11-20T13:45:43.737Z,2.90
2018-11-20T13:48:29.889Z,3.00
2018-11-20T13:51:32.519Z,2.90
2018-11-20T13:54:18.975Z,3.00
2018-11-20T13:57:05.444Z,3.00
2018-11-20T14:00:08.135Z,3.00
2018-11-20T14:03:04.763Z,3.00
2018-11-20T14:06:07.398Z,3.00
2018-11-20T14:08:53.989Z,2.90
2018-11-20T14:11:40.063Z,2.90
2018-11-20T14:14:30.731Z,2.90
2018-11-20T14:17:17.171Z,2.90
2018-11-20T14:20:08.009Z,2.90
2018-11-20T14:22:54.547Z,2.90
2018-11-20T14:25:44.248Z,2.90
2018-11-20T14:28:37.901Z,3.00
2018-11-20T14:31:41.586Z,2.90
2018-11-20T14:34:25.549Z,2.90
2018-11-20T14:37:25.220Z,2.90
2018-11-20T14:40:21.550Z,2.90
2018-11-20T14:43:18.310Z,2.90
2018-11-20T14:46:24.178Z,2.80
2018-11-20T14:49:10.350Z,2.80
2018-11-20T14:51:55.526Z,2.70
2018-11-20T14:54:42.791Z,2.60
2018-11-20T14:57:28.645Z,2.50
2018-11-20T15:00:14.749Z,2.40
2018-11-20T15:03:02.443Z,2.40
2018-11-20T15:05:50.137Z,2.20
2018-11-20T15:08:44.228Z,2.10
2018-11-20T15:11:27.457Z,2.00
2018-11-20T15:14:21.404Z,1.90
2018-11-20T15:17:08.028Z,1.80
2018-11-20T15:20:01.787Z,1.80
2018-11-20T15:23:01.710Z,1.60
2018-11-20T15:26:03.994Z,1.50
2018-11-20T15:28:44.792Z,1.40
2018-11-20T15:31:26.264Z,1.30
2018-11-20T15:34:14.153Z,1.20
2018-11-20T15:37:20.518Z,1.10
2018-11-20T15:40:07.047Z,1.00
2018-11-20T15:42:54.343Z,0.90
2018-11-20T15:45:35.708Z,0.90
2018-11-20T15:48:24.220Z,0.90
2018-11-20T15:51:24.382Z,0.90
2018-11-20T15:54:30.793Z,0.90
2018-11-20T15:57:34.259Z,0.90
2018-11-20T16:00:25.014Z,0.90
2018-11-20T16:03:25.068Z,0.90
2018-11-20T16:06:13.578Z,0.80
2018-11-20T16:10:22.144Z,0.90
2018-11-20T16:13:20.918Z,0.90
2018-11-20T16:16:07.862Z,0.90
2018-11-20T16:18:54.787Z,0.90
2018-11-20T16:21:40.229Z,0.90
2018-11-20T16:24:25.478Z,0.90
2018-11-20T16:27:24.552Z,0.90
2018-11-20T16:30:10.114Z,0.90
2018-11-20T16:33:02.627Z,0.90
2018-11-20T16:36:04.334Z,0.90
2018-11-20T16:38:49.894Z,0.90
2018-11-20T16:41:48.985Z,0.90
2018-11-20T16:44:36.220Z,1.00
2018-11-20T16:47:23.717Z,1.00
2018-11-20T16:50:09.143Z,1.00
2018-11-20T16:53:14.417Z,1.00
2018-11-20T16:56:07.236Z,1.10
2018-11-20T16:58:47.366Z,1.10
2018-11-20T17:01:42.930Z,1.10
2018-11-20T17:04:38.941Z,1.10
2018-11-20T17:07:34.942Z,1.20
2018-11-20T17:10:21.933Z,1.20
2018-11-20T17:13:20.910Z,1.20
2018-11-20T17:16:10.694Z,1.30
2018-11-20T17:19:15.712Z,1.30
2018-11-20T17:22:03.075Z,1.30
2018-11-20T17:24:48.700Z,1.30
2018-11-20T17:27:41.493Z,1.30
2018-11-20T17:30:28.782Z,1.30
2018-11-20T17:33:12.356Z,1.30
2018-11-20T17:35:57.659Z,1.40
2018-11-20T17:38:39.022Z,1.40
2018-11-20T17:41:31.664Z,1.40
2018-11-20T17:44:28.290Z,1.40
2018-11-20T17:47:17.832Z,1.40
2018-11-20T17:50:10.265Z,1.40
2018-11-20T17:52:56.662Z,1.40
2018-11-20T17:55:43.555Z,1.40
2018-11-20T17:58:24.133Z,1.40
2018-11-20T18:01:05.013Z,1.40
2018-11-20T18:04:09.838Z,1.30
2018-11-20T18:06:54.502Z,1.40
2018-11-20T18:09:47.196Z,1.40
2018-11-20T18:12:49.664Z,1.40
2018-11-20T18:15:42.383Z,1.40
2018-11-20T18:18:28.573Z,1.40
2018-11-20T18:21:21.320Z,1.40
2018-11-20T18:24:06.679Z,1.40
2018-11-20T18:26:52.436Z,1.40
2018-11-20T18:29:42.273Z,1.40
2018-11-20T18:32:27.645Z,1.40
2018-11-20T18:35:13.463Z,1.40
2018-11-20T18:38:09.219Z,1.40
2018-11-20T18:40:54.666Z,1.40
2018-11-20T18:43:47.097Z,1.40
2018-11-20T18:46:48.949Z,1.40
2018-11-20T18:49:33.754Z,1.50
2018-11-20T18:52:27.235Z,1.50
2018-11-20T18:55:14.139Z,1.50
2018-11-20T18:57:59.479Z,1.50
2018-11-20T19:00:37.835Z,1.40
2018-11-20T19:03:23.244Z,1.50
2018-11-20T19:06:22.105Z,1.50
2018-11-20T19:09:07.595Z,1.50
2018-11-20T19:11:52.936Z,1.50
2018-11-20T19:14:45.735Z,1.50
2018-11-20T19:17:31.431Z,1.40
2018-11-20T19:20:17.144Z,1.50
2018-11-20T19:23:02.711Z,1.50
2018-11-20T19:25:58.615Z,1.50
2018-11-20T19:28:44.163Z,1.50
2018-11-20T19:31:29.721Z,1.50
2018-11-20T19:34:15.197Z,1.50
2018-11-20T19:37:00.527Z,1.50
2018-11-20T19:39:48.181Z,1.50
2018-11-20T19:42:33.933Z,1.50
2018-11-20T19:45:19.420Z,1.40
2018-11-20T19:48:05.063Z,1.50
2018-11-20T19:50:57.882Z,1.40
2018-11-20T19:53:56.683Z,1.40
2018-11-20T19:56:42.336Z,1.50
2018-11-20T19:59:42.646Z,1.40
2018-11-20T20:02:48.017Z,1.50
2018-11-20T20:05:34.991Z,1.50
2018-11-20T20:08:21.891Z,1.50
2018-11-20T20:11:01.281Z,1.50
2018-11-20T20:13:51.016Z,1.50
2018-11-20T20:16:44.173Z,1.50
2018-11-20T20:19:43.061Z,1.60
2018-11-20T20:22:21.827Z,1.50
2018-11-20T20:25:11.856Z,1.50
2018-11-20T20:28:13.959Z,1.50
2018-11-20T20:30:53.986Z,1.50
2018-11-20T20:33:39.434Z,1.50
2018-11-20T20:36:24.847Z,1.60
2018-11-20T20:39:26.776Z,1.60
2018-11-20T20:42:12.581Z,1.60
2018-11-20T20:44:58.037Z,1.60
2018-11-20T20:47:57.171Z,1.60
2018-11-20T20:50:42.828Z,1.50
2018-11-20T20:53:28.683Z,1.60
2018-11-20T20:56:15.725Z,1.60
2018-11-20T20:59:01.724Z,1.60
2018-11-20T21:01:51.556Z,1.60
2018-11-20T21:04:52.984Z,1.60
2018-11-20T21:07:51.609Z,1.60
2018-11-20T21:10:37.269Z,1.70
2018-11-20T21:13:28.811Z,1.70
2018-11-20T21:16:14.494Z,1.70
2018-11-20T21:19:19.555Z,1.70
2018-11-20T21:22:12.341Z,1.70
2018-11-20T21:25:09.854Z,1.70
2018-11-20T21:27:55.217Z,1.70
2018-11-20T21:30:47.961Z,1.70
2018-11-20T21:33:26.867Z,1.70
2018-11-20T21:36:12.413Z,1.70
2018-11-20T21:38:59.451Z,1.70
2018-11-20T21:41:49.038Z,1.60
2018-11-20T21:44:31.270Z,1.70
2018-11-20T21:47:17.023Z,1.70
2018-11-20T21:50:02.365Z,1.60
2018-11-20T21:52:41.948Z,1.70
2018-11-20T21:55:34.935Z,1.60
2018-11-20T21:58:24.599Z,1.60
2018-11-20T22:01:15.028Z,1.60
2018-11-20T22:04:17.072Z,1.60
2018-11-20T22:07:21.903Z,1.60
2018-11-20T22:10:11.882Z,1.60
2018-11-20T22:12:57.383Z,1.60
2018-11-20T22:15:53.349Z,1.60
2018-11-20T22:18:49.252Z,1.60
2018-11-20T22:21:30.673Z,1.50
2018-11-20T22:24:16.256Z,1.60
2018-11-20T22:27:21.159Z,1.60
2018-11-20T22:30:10.862Z,1.50
2018-11-20T22:33:00.379Z,1.50
2018-11-20T22:35:42.761Z,1.50
2018-11-20T22:38:27.641Z,1.50
2018-11-20T22:41:20.566Z,1.40
2018-11-20T22:44:01.134Z,1.40
2018-11-20T22:46:46.706Z,1.40
2018-11-20T22:49:32.944Z,1.40
2018-11-20T22:52:07.393Z,1.40
2018-11-20T22:55:12.590Z,1.50
2018-11-20T22:57:58.404Z,1.50
2018-11-20T23:00:44.070Z,1.50
2018-11-20T23:03:29.770Z,1.50
2018-11-20T23:06:24.686Z,1.50
2018-11-20T23:08:52.125Z,1.50
2018-11-20T23:11:19.485Z,1.40
2018-11-20T23:13:46.890Z,1.50
2018-11-20T23:16:14.255Z,1.50
2018-11-20T23:18:41.627Z,1.50
2018-11-20T23:21:08.977Z,1.50
2018-11-20T23:23:36.350Z,1.50
2018-11-20T23:26:03.754Z,1.50
2018-11-20T23:28:31.128Z,1.50
2018-11-20T23:30:58.596Z,1.50
2018-11-20T23:33:25.992Z,1.50
2018-11-20T23:35:53.362Z,1.50
2018-11-20T23:38:20.761Z,1.50
2018-11-20T23:40:48.179Z,1.50
2018-11-20T23:43:15.510Z,1.50
2018-11-20T23:45:42.882Z,1.50
2018-11-20T23:48:10.424Z,1.50
2018-11-20T23:50:37.764Z,1.50
2018-11-20T23:53:05.112Z,1.50
2018-11-20T23:55:32.526Z,1.50
2018-11-20T23:57:59.897Z,1.50
